createdAt,value
2023-01-22T00:00:08.130Z,23.20
2023-01-22T00:03:09.926Z,22.30
2023-01-22T00:06:12.312Z,22.95
2023-01-22T00:09:15.747Z,21.60
2023-01-22T00:12:17.773Z,21.40
2023-01-22T00:15:19.861Z,21.33
2023-01-22T00:18:21.985Z,21.08
2023-01-22T00:21:24.356Z,22.90
2023-01-22T00:24:26.160Z,21.70
2023-01-22T00:27:27.976Z,21.23
2023-01-22T00:30:30.093Z,21.42
2023-01-22T00:33:33.454Z,21.92
2023-01-22T00:36:35.276Z,21.52
2023-01-22T00:39:37.284Z,21.15
2023-01-22T00:42:39.537Z,21.55
2023-01-22T00:45:41.324Z,20.80
2023-01-22T00:48:45.404Z,20.98
2023-01-22T00:51:47.196Z,19.90
2023-01-22T00:54:48.967Z,21.75
2023-01-22T00:57:50.720Z,20.38
2023-01-22T01:00:52.853Z,21.40
2023-01-22T01:03:54.807Z,20.80
2023-01-22T01:06:56.657Z,19.52
2023-01-22T01:09:58.420Z,19.77
2023-01-22T01:13:00.231Z,18.90
2023-01-22T01:16:05.196Z,19.65
2023-01-22T01:19:10.107Z,19.55
2023-01-22T01:22:12.012Z,19.92
2023-01-22T01:25:13.881Z,20.30
2023-01-22T01:28:16.148Z,20.45
2023-01-22T01:31:18.446Z,20.05
2023-01-22T01:34:20.496Z,19.70
2023-01-22T01:37:22.459Z,19.75
2023-01-22T01:40:24.268Z,20.50
2023-01-22T01:43:26.406Z,20.17
2023-01-22T01:46:28.568Z,20.17
2023-01-22T01:49:35.157Z,19.98
2023-01-22T01:52:37.151Z,20.33
2023-01-22T01:55:40.054Z,19.08
2023-01-22T01:58:44.737Z,18.50
2023-01-22T02:01:52.974Z,20.25
2023-01-22T02:04:55.047Z,19.92
2023-01-22T02:07:56.953Z,20.52
2023-01-22T02:10:59.148Z,18.83
2023-01-22T02:14:17.827Z,18.85
2023-01-22T02:17:22.601Z,18.92
2023-01-22T02:20:24.743Z,18.05
2023-01-22T02:23:27.545Z,17.55
2023-01-22T02:26:30.063Z,18.77
2023-01-22T02:29:31.958Z,17.88
2023-01-22T02:32:33.937Z,17.88
2023-01-22T02:35:35.782Z,18.67
2023-01-22T02:38:37.774Z,16.65
2023-01-22T02:41:39.683Z,17.55
2023-01-22T02:44:41.645Z,18.08
2023-01-22T02:47:43.493Z,19.45
2023-01-22T02:50:45.948Z,18.52
2023-01-22T02:53:47.926Z,19.35
2023-01-22T02:56:49.835Z,18.33
2023-01-22T02:59:51.628Z,18.77
2023-01-22T03:02:53.488Z,19.10
2023-01-22T03:05:55.423Z,17.98
2023-01-22T03:08:59.827Z,18.10
2023-01-22T03:12:02.300Z,19.63
2023-01-22T03:15:22.893Z,19.42
2023-01-22T03:18:43.381Z,17.88
2023-01-22T03:21:45.341Z,18.45
2023-01-22T03:24:52.626Z,17.08
2023-01-22T03:28:16.646Z,16.83
2023-01-22T03:31:18.931Z,17.15
2023-01-22T03:34:23.155Z,17.53
2023-01-22T03:37:24.955Z,17.58
2023-01-22T03:40:26.784Z,17.02
2023-01-22T03:43:28.947Z,16.67
2023-01-22T03:46:32.291Z,17.75
2023-01-22T03:49:34.159Z,18.45
2023-01-22T03:52:36.281Z,17.77
2023-01-22T03:55:38.188Z,19.00
2023-01-22T03:58:40.297Z,18.00
2023-01-22T04:01:42.297Z,17.40
2023-01-22T04:04:44.714Z,17.33
2023-01-22T04:07:48.581Z,17.80
2023-01-22T04:10:50.648Z,18.02
2023-01-22T04:13:55.109Z,17.40
2023-01-22T04:16:57.118Z,18.33
2023-01-22T04:19:58.932Z,18.10
2023-01-22T04:23:00.785Z,17.45
2023-01-22T04:26:02.607Z,17.52
2023-01-22T04:29:04.512Z,17.67
2023-01-22T04:32:06.546Z,17.48
2023-01-22T04:35:08.859Z,16.58
2023-01-22T04:38:13.795Z,17.20
2023-01-22T04:41:15.914Z,17.95
2023-01-22T04:44:17.909Z,18.85
2023-01-22T04:47:19.898Z,18.13
2023-01-22T04:50:24.617Z,17.95
2023-01-22T04:53:26.695Z,17.85
2023-01-22T04:56:28.465Z,18.10
2023-01-22T04:59:30.317Z,17.67
2023-01-22T05:02:32.474Z,18.50
2023-01-22T05:05:34.951Z,17.80
2023-01-22T05:08:36.838Z,18.67
2023-01-22T05:11:38.716Z,17.50
2023-01-22T05:14:40.558Z,19.02
2023-01-22T05:17:42.478Z,18.27
2023-01-22T05:20:44.439Z,18.60
2023-01-22T05:23:46.243Z,17.52
2023-01-22T05:26:48.235Z,18.63
2023-01-22T05:29:50.268Z,17.63
2023-01-22T05:32:56.220Z,17.77
2023-01-22T05:36:00.272Z,18.33
2023-01-22T05:39:02.501Z,17.33
2023-01-22T05:42:04.555Z,17.88
2023-01-22T05:45:07.038Z,17.08
2023-01-22T05:48:08.939Z,18.98
2023-01-22T05:51:11.235Z,18.17
2023-01-22T05:54:13.151Z,13.30
2023-01-22T05:57:15.287Z,17.67
2023-01-22T06:00:17.867Z,18.40
2023-01-22T06:03:19.850Z,18.48
2023-01-22T06:06:21.825Z,17.85
2023-01-22T06:09:24.198Z,18.25
2023-01-22T06:12:26.122Z,17.10
2023-01-22T06:15:27.973Z,17.70
2023-01-22T06:18:30.720Z,17.42
2023-01-22T06:21:32.664Z,13.45
2023-01-22T06:24:34.450Z,17.60
2023-01-22T06:27:36.349Z,16.90
2023-01-22T06:30:39.194Z,16.45
2023-01-22T06:33:41.607Z,17.65
2023-01-22T06:36:43.687Z,16.63
2023-01-22T06:39:45.540Z,17.40
2023-01-22T06:42:47.350Z,15.98
2023-01-22T06:45:49.433Z,16.95
2023-01-22T06:48:51.477Z,16.55
2023-01-22T06:51:53.298Z,17.08
2023-01-22T06:54:55.250Z,17.55
2023-01-22T06:57:57.374Z,17.55
2023-01-22T07:01:03.780Z,18.13
2023-01-22T07:04:06.077Z,17.63
2023-01-22T07:07:07.938Z,18.33
2023-01-22T07:10:10.743Z,18.65
2023-01-22T07:13:14.316Z,18.27
2023-01-22T07:16:16.329Z,17.42
2023-01-22T07:19:18.529Z,17.52
2023-01-22T07:22:20.306Z,18.02
2023-01-22T07:25:22.165Z,17.83
2023-01-22T07:28:24.459Z,18.65
2023-01-22T07:31:26.732Z,17.43
2023-01-22T07:34:29.100Z,12.50
2023-01-22T07:37:30.897Z,17.83
2023-01-22T07:40:33.532Z,18.23
2023-01-22T07:43:35.434Z,17.58
2023-01-22T07:46:39.123Z,18.38
2023-01-22T07:49:41.308Z,17.23
2023-01-22T07:52:43.122Z,17.05
2023-01-22T07:55:45.233Z,17.65
2023-01-22T07:58:47.342Z,18.48
2023-01-22T08:01:49.298Z,17.30
2023-01-22T08:04:51.562Z,17.27
2023-01-22T08:07:53.607Z,19.15
2023-01-22T08:10:58.777Z,18.40
2023-01-22T08:14:00.621Z,16.92
2023-01-22T08:17:02.734Z,18.08
2023-01-22T08:20:06.256Z,18.02
2023-01-22T08:23:08.133Z,18.25
2023-01-22T08:26:10.241Z,19.20
2023-01-22T08:29:12.219Z,18.23
2023-01-22T08:32:14.955Z,17.85
2023-01-22T08:35:17.336Z,17.42
2023-01-22T08:38:19.349Z,18.37
2023-01-22T08:41:21.488Z,17.05
2023-01-22T08:44:24.419Z,16.73
2023-01-22T08:47:27.100Z,17.10
2023-01-22T08:50:29.705Z,18.23
2023-01-22T08:53:31.537Z,17.55
2023-01-22T08:56:33.602Z,17.25
2023-01-22T08:59:35.370Z,16.58
2023-01-22T09:02:37.413Z,16.23
2023-01-22T09:05:40.376Z,15.93
2023-01-22T09:08:42.359Z,17.10
2023-01-22T09:11:45.081Z,16.75
2023-01-22T09:14:47.223Z,16.88
2023-01-22T09:17:48.974Z,15.95
2023-01-22T09:20:51.193Z,16.52
2023-01-22T09:23:53.672Z,15.80
2023-01-22T09:26:55.566Z,15.00
2023-01-22T09:29:58.221Z,16.10
2023-01-22T09:33:00.203Z,15.65
2023-01-22T09:36:28.948Z,15.00
2023-01-22T09:39:30.893Z,15.75
2023-01-22T09:42:37.941Z,15.25
2023-01-22T09:45:41.085Z,19.75
2023-01-22T09:51:55.787Z,22.92
2023-01-22T09:54:57.680Z,18.08
2023-01-22T09:58:02.608Z,16.70
2023-01-22T10:01:06.276Z,47.55
2023-01-22T10:04:21.679Z,30.33
2023-01-22T10:07:49.450Z,16.02
2023-01-22T10:10:52.199Z,17.00
2023-01-22T10:13:57.828Z,16.58
2023-01-22T10:17:03.625Z,16.60
2023-01-22T10:20:07.259Z,15.93
2023-01-22T10:23:18.287Z,16.45
2023-01-22T10:26:41.646Z,15.73
2023-01-22T10:30:17.192Z,20.77
2023-01-22T10:33:24.288Z,15.52
2023-01-22T10:36:27.664Z,14.63
2023-01-22T10:39:43.469Z,14.77
2023-01-22T10:42:45.397Z,16.38
2023-01-22T10:45:55.776Z,15.43
2023-01-22T10:49:01.946Z,15.70
2023-01-22T10:52:18.658Z,16.10
2023-01-22T10:55:27.844Z,17.02
2023-01-22T10:58:34.536Z,15.52
2023-01-22T11:01:39.601Z,15.30
2023-01-22T11:04:41.691Z,16.45
2023-01-22T11:07:46.080Z,15.70
2023-01-22T11:11:00.485Z,14.73
2023-01-22T11:14:13.368Z,16.05
2023-01-22T11:17:34.349Z,15.95
2023-01-22T11:20:36.186Z,15.07
2023-01-22T11:23:49.340Z,17.30
2023-01-22T11:27:13.010Z,20.42
2023-01-22T11:34:08.791Z,15.57
2023-01-22T11:37:16.509Z,16.55
2023-01-22T11:40:31.123Z,15.60
2023-01-22T11:44:04.299Z,15.70
2023-01-22T11:47:17.677Z,16.52
2023-01-22T11:50:43.956Z,15.82
2023-01-22T11:53:45.699Z,16.10
2023-01-22T11:57:01.798Z,18.70
2023-01-22T12:00:10.446Z,16.95
2023-01-22T12:03:28.056Z,15.50
2023-01-22T12:06:33.092Z,16.15
2023-01-22T12:10:06.976Z,16.58
2023-01-22T12:16:16.511Z,19.35
2023-01-22T12:19:33.584Z,18.33
2023-01-22T12:22:50.326Z,15.30
2023-01-22T12:26:05.580Z,16.85
2023-01-22T12:29:16.961Z,18.42
2023-01-22T12:32:21.711Z,51.75
2023-01-22T12:35:25.930Z,34.45
2023-01-22T12:38:33.784Z,23.88
2023-01-22T12:42:12.911Z,18.48
2023-01-22T12:46:04.444Z,26.67
2023-01-22T12:49:09.290Z,27.58
2023-01-22T12:52:35.393Z,27.42
2023-01-22T12:55:43.247Z,15.85
2023-01-22T12:58:56.789Z,16.92
2023-01-22T13:02:00.977Z,42.80
2023-01-22T13:05:19.671Z,18.27
2023-01-22T13:08:44.764Z,19.38
2023-01-22T13:11:46.849Z,17.35
2023-01-22T13:14:49.782Z,16.73
2023-01-22T13:18:30.933Z,17.98
2023-01-22T13:21:50.455Z,15.57
2023-01-22T13:24:57.913Z,29.42
2023-01-22T13:28:09.574Z,21.55
2023-01-22T13:31:24.324Z,18.58
2023-01-22T13:34:35.300Z,18.13
2023-01-22T13:38:02.851Z,17.88
2023-01-22T13:41:19.474Z,21.63
2023-01-22T13:44:25.153Z,19.33
2023-01-22T13:47:32.043Z,23.25
2023-01-22T13:50:35.153Z,37.00
2023-01-22T13:54:01.589Z,20.30
2023-01-22T13:57:05.665Z,24.60
2023-01-22T14:07:40.537Z,15.75
2023-01-22T14:18:29.578Z,15.60
2023-01-22T14:22:15.750Z,24.13
2023-01-22T14:25:17.675Z,15.15
2023-01-22T14:28:21.631Z,17.33
2023-01-22T14:31:23.860Z,23.50
2023-01-22T14:34:26.029Z,15.10
2023-01-22T14:37:28.004Z,17.15
2023-01-22T14:40:36.925Z,18.17
2023-01-22T14:43:54.484Z,19.38
2023-01-22T14:46:56.423Z,24.33
2023-01-22T14:49:58.276Z,19.50
2023-01-22T14:53:00.386Z,23.02
2023-01-22T14:56:08.693Z,20.20
2023-01-22T14:59:10.833Z,20.52
2023-01-22T15:02:12.803Z,20.45
2023-01-22T15:05:15.034Z,19.48
2023-01-22T15:08:16.920Z,18.67
2023-01-22T15:11:19.073Z,21.23
2023-01-22T15:14:21.115Z,60.35
2023-01-22T15:17:23.102Z,25.27
2023-01-22T15:20:31.217Z,30.65
2023-01-22T15:23:38.875Z,29.25
2023-01-22T15:26:43.940Z,22.73
2023-01-22T15:29:46.492Z,26.40
2023-01-22T15:32:48.432Z,23.73
2023-01-22T15:35:50.923Z,20.98
2023-01-22T15:46:31.070Z,15.88
2023-01-22T15:49:36.446Z,26.88
2023-01-22T16:16:33.329Z,38.35
2023-01-22T16:21:11.592Z,24.65
2023-01-22T16:29:05.419Z,25.70
2023-01-22T16:36:28.450Z,23.73
2023-01-22T18:47:27.279Z,86.78
2023-01-22T18:55:17.634Z,23.40
2023-01-22T19:19:17.898Z,89.22
2023-01-22T19:22:23.401Z,116.77
2023-01-22T19:25:25.436Z,117.03
2023-01-22T19:28:27.576Z,220.95
2023-01-22T19:39:17.124Z,207.73
2023-01-22T19:42:19.445Z,245.27
2023-01-22T19:49:47.023Z,151.43
2023-01-22T19:52:49.027Z,79.38
2023-01-22T19:55:51.422Z,43.10
2023-01-22T19:58:59.710Z,42.37
2023-01-22T20:02:34.659Z,26.02
2023-01-22T20:05:44.838Z,25.05
2023-01-22T20:13:43.324Z,54.17
2023-01-22T20:16:45.572Z,40.40
2023-01-22T20:20:32.357Z,62.38
2023-01-22T20:47:35.236Z,37.67
2023-01-22T20:53:44.994Z,33.72
2023-01-22T20:56:46.968Z,23.85
2023-01-22T20:59:48.888Z,29.17
2023-01-22T21:02:51.043Z,28.38
2023-01-22T21:05:52.961Z,36.75
2023-01-22T21:08:58.902Z,52.42
2023-01-22T21:12:00.823Z,47.00
2023-01-22T21:15:03.184Z,64.43
2023-01-22T21:18:05.150Z,31.37
2023-01-22T21:21:08.730Z,41.47
2023-01-22T21:24:10.883Z,37.20
2023-01-22T21:27:12.736Z,37.72
2023-01-22T21:30:15.083Z,54.22
2023-01-22T21:33:19.003Z,31.50
2023-01-22T21:36:22.396Z,34.15
2023-01-22T21:42:47.485Z,31.77
2023-01-22T21:46:08.043Z,27.17
2023-01-22T21:49:18.020Z,28.48
2023-01-22T21:52:20.096Z,24.05
2023-01-22T21:55:23.586Z,27.35
2023-01-22T21:58:25.635Z,24.75
2023-01-22T22:01:27.895Z,24.27
2023-01-22T22:04:31.428Z,31.08
2023-01-22T22:07:33.233Z,32.30
2023-01-22T22:10:35.071Z,33.30
2023-01-22T22:13:37.024Z,38.55
2023-01-22T22:16:39.514Z,32.05
2023-01-22T22:19:41.403Z,25.80
2023-01-22T22:22:43.274Z,32.58
2023-01-22T22:25:48.978Z,31.38
2023-01-22T22:28:51.050Z,46.35
2023-01-22T22:31:53.029Z,29.85
2023-01-22T22:34:55.090Z,42.83
2023-01-22T22:37:57.228Z,43.38
2023-01-22T22:41:05.348Z,41.83
2023-01-22T22:44:08.355Z,43.65
2023-01-22T22:47:10.338Z,34.60
2023-01-22T22:50:12.268Z,29.63
2023-01-22T22:53:14.207Z,27.42
2023-01-22T22:56:16.226Z,25.38
2023-01-22T22:59:19.846Z,26.50
2023-01-22T23:02:22.169Z,25.25
2023-01-22T23:05:24.078Z,26.40
2023-01-22T23:08:26.117Z,26.08
2023-01-22T23:11:33.812Z,25.27
2023-01-22T23:14:35.796Z,26.58
2023-01-22T23:17:37.776Z,24.65
2023-01-22T23:20:39.688Z,26.30
2023-01-22T23:23:41.952Z,26.77
2023-01-22T23:26:44.915Z,26.05
2023-01-22T23:29:46.909Z,25.30
2023-01-22T23:32:48.930Z,25.20
2023-01-22T23:35:52.441Z,26.58
2023-01-22T23:38:55.479Z,25.88
2023-01-22T23:41:57.958Z,26.27
2023-01-22T23:44:59.852Z,27.20
2023-01-22T23:48:02.000Z,26.65
2023-01-22T23:51:04.675Z,25.90
2023-01-22T23:54:07.743Z,26.60
2023-01-22T23:57:09.670Z,26.25
